LTAC/ESB METAR and TAF weather

Enter ICAO airport designator
Station Type Date Time Source
LTAC METAR 2019/08/25 20:20 UTC NOAA

LTAC 252020Z 04004KT CAVOK 22/09 Q1018 NOSIG


Station Type Date Time Source
LTAC Decoded METAR 2019/08/25 20:20 UTC NOAA

Station name not available
Aug 25, 2019 - 04:20 PM EDT / 2019.08.25 2020 UTC
Wind: from the NE (040 degrees) at 5 MPH (4 KT):0
Visibility: greater than 7 mile(s):0
Temperature: 71 F (22 C)
Dew Point: 48 F (9 C)
Relative Humidity: 43%
Pressure (altimeter): 30.06 in. Hg (1018 hPa)
ob: LTAC 252020Z 04004KT CAVOK 22/09 Q1018 NOSIG
cycle: 20

Station Type Date Time Source
LTAC TAF 2019/08/25 18:03 UTC NOAA

TAF TAF LTAC 251640Z 2518/2618 06015KT CAVOK
BECMG 2518/2521 VRB02KT
BECMG 2606/2608 04012KT SCT040

Example: see airport list